createdAt,value
2018-08-03T00:01:46.347Z,7.10
2018-08-03T00:04:15.088Z,7.20
2018-08-03T00:06:43.774Z,7.47
2018-08-03T00:09:12.739Z,7.10
2018-08-03T00:11:41.783Z,8.20
2018-08-03T00:14:10.451Z,7.70
2018-08-03T00:16:39.432Z,6.97
2018-08-03T00:19:08.094Z,7.57
2018-08-03T00:21:36.715Z,7.90
2018-08-03T00:24:05.395Z,7.17
2018-08-03T00:26:35.307Z,8.77
2018-08-03T00:29:04.331Z,6.40
2018-08-03T00:31:33.014Z,7.70
2018-08-03T00:34:01.427Z,7.97
2018-08-03T00:36:29.791Z,8.40
2018-08-03T00:38:58.188Z,8.57
2018-08-03T00:41:26.555Z,8.20
2018-08-03T00:43:55.110Z,7.63
2018-08-03T00:46:23.565Z,8.57
2018-08-03T00:48:51.983Z,8.63
2018-08-03T00:51:20.619Z,8.23
2018-08-03T00:53:49.122Z,7.13
2018-08-03T00:56:17.791Z,7.70
2018-08-03T00:58:46.332Z,7.57
2018-08-03T01:01:14.774Z,6.97
2018-08-03T01:03:43.483Z,7.50
2018-08-03T01:06:12.147Z,7.43
2018-08-03T01:08:41.650Z,7.80
2018-08-03T01:11:10.320Z,7.43
2018-08-03T01:13:38.950Z,7.27
2018-08-03T01:16:07.351Z,8.90
2018-08-03T01:18:35.978Z,9.60
2018-08-03T01:21:04.531Z,7.30
2018-08-03T01:23:32.916Z,7.67
2018-08-03T01:26:01.563Z,8.63
2018-08-03T01:28:29.666Z,7.90
2018-08-03T01:30:58.098Z,8.07
2018-08-03T01:33:26.699Z,9.17
2018-08-03T01:35:55.100Z,8.03
2018-08-03T01:38:23.486Z,8.53
2018-08-03T01:40:52.211Z,8.67
2018-08-03T01:43:20.919Z,7.57
2018-08-03T01:45:50.083Z,7.20
2018-08-03T01:48:18.823Z,8.03
2018-08-03T01:50:46.890Z,6.93
2018-08-03T01:53:15.506Z,6.97
2018-08-03T01:55:43.919Z,8.03
2018-08-03T01:58:12.499Z,7.47
2018-08-03T02:00:41.199Z,7.70
2018-08-03T02:03:09.988Z,8.00
2018-08-03T02:05:38.367Z,7.20
2018-08-03T02:08:07.062Z,6.83
2018-08-03T02:10:35.511Z,7.27
2018-08-03T02:13:04.229Z,7.20
2018-08-03T02:15:32.716Z,7.30
2018-08-03T02:18:01.228Z,6.83
2018-08-03T02:20:29.707Z,7.43
2018-08-03T02:22:58.103Z,7.07
2018-08-03T02:25:27.261Z,8.37
2018-08-03T02:27:55.870Z,8.10
2018-08-03T02:30:24.552Z,7.47
2018-08-03T02:32:53.199Z,8.07
2018-08-03T02:35:21.563Z,7.17
2018-08-03T02:37:49.966Z,10.60
2018-08-03T02:40:19.019Z,8.60
2018-08-03T02:42:47.685Z,7.57
2018-08-03T02:45:16.335Z,7.00
2018-08-03T02:47:44.848Z,8.90
2018-08-03T02:50:14.950Z,7.33
2018-08-03T02:52:44.673Z,9.40
2018-08-03T02:55:13.046Z,8.07
2018-08-03T02:57:41.576Z,8.50
2018-08-03T03:00:10.534Z,10.07
2018-08-03T03:02:39.454Z,10.00
2018-08-03T03:05:07.842Z,9.07
2018-08-03T03:07:36.631Z,9.67
2018-08-03T03:10:05.599Z,8.90
2018-08-03T03:12:34.051Z,7.47
2018-08-03T03:15:03.767Z,8.87
2018-08-03T03:17:32.171Z,8.60
2018-08-03T03:20:01.183Z,9.93
2018-08-03T03:22:30.143Z,9.20
2018-08-03T03:24:59.021Z,7.63
2018-08-03T03:27:27.371Z,8.87
2018-08-03T03:29:56.108Z,8.93
2018-08-03T03:32:24.522Z,7.80
2018-08-03T03:34:52.858Z,7.97
2018-08-03T03:37:21.219Z,8.70
2018-08-03T03:39:49.623Z,10.30
2018-08-03T03:42:18.051Z,8.73
2018-08-03T03:44:46.965Z,9.40
2018-08-03T03:47:15.336Z,8.23
2018-08-03T03:49:43.715Z,8.50
2018-08-03T03:52:12.534Z,7.70
2018-08-03T03:54:41.375Z,9.27
2018-08-03T03:57:09.990Z,9.00
2018-08-03T03:59:38.383Z,9.80
2018-08-03T04:02:07.046Z,7.90
2018-08-03T04:04:35.723Z,8.40
2018-08-03T04:07:04.511Z,10.00
2018-08-03T04:09:32.887Z,9.43
2018-08-03T04:12:01.271Z,7.70
2018-08-03T04:14:29.943Z,8.73
2018-08-03T04:16:58.542Z,8.80
2018-08-03T04:19:27.532Z,7.13
2018-08-03T04:21:55.931Z,8.63
2018-08-03T04:24:24.319Z,8.90
2018-08-03T04:26:52.723Z,8.93
2018-08-03T04:29:21.071Z,8.10
2018-08-03T04:31:51.072Z,9.27
2018-08-03T04:34:19.712Z,8.83
2018-08-03T04:36:48.423Z,8.90
2018-08-03T04:39:17.552Z,7.63
2018-08-03T04:41:46.338Z,7.83
2018-08-03T04:44:14.817Z,7.00
2018-08-03T04:46:43.183Z,7.47
2018-08-03T04:49:11.789Z,8.70
2018-08-03T04:51:40.456Z,7.83
2018-08-03T04:54:08.842Z,8.67
2018-08-03T04:56:37.244Z,8.10
2018-08-03T04:59:05.885Z,8.80
2018-08-03T05:01:34.291Z,9.00
2018-08-03T05:04:02.675Z,9.20
2018-08-03T05:06:31.740Z,8.37
2018-08-03T05:09:00.716Z,8.77
2018-08-03T05:11:29.070Z,8.70
2018-08-03T05:13:57.463Z,9.47
2018-08-03T05:16:26.363Z,7.40
2018-08-03T05:18:55.181Z,7.10
2018-08-03T05:21:23.607Z,6.50
2018-08-03T05:23:52.224Z,7.10
2018-08-03T05:26:20.604Z,7.97
2018-08-03T05:28:48.968Z,7.20
2018-08-03T05:31:17.651Z,6.83
2018-08-03T05:33:46.831Z,8.27
2018-08-03T05:36:15.205Z,6.43
2018-08-03T05:38:43.927Z,8.40
2018-08-03T05:41:12.366Z,6.70
2018-08-03T05:43:41.648Z,7.50
2018-08-03T05:46:10.053Z,6.70
2018-08-03T05:48:38.759Z,7.57
2018-08-03T05:51:07.356Z,7.43
2018-08-03T05:53:36.045Z,7.80
2018-08-03T05:56:04.463Z,7.00
2018-08-03T05:58:32.819Z,7.93
2018-08-03T06:01:01.484Z,6.90
2018-08-03T06:03:30.135Z,7.23
2018-08-03T06:05:59.374Z,7.77
2018-08-03T06:08:28.402Z,8.37
2018-08-03T06:10:57.113Z,7.13
2018-08-03T06:13:26.162Z,7.50
2018-08-03T06:15:55.134Z,7.93
2018-08-03T06:18:23.794Z,6.93
2018-08-03T06:20:52.215Z,7.10
2018-08-03T06:23:20.583Z,7.47
2018-08-03T06:25:48.964Z,7.30
2018-08-03T06:28:17.639Z,7.70
2018-08-03T06:30:46.027Z,7.20
2018-08-03T06:33:14.416Z,7.30
2018-08-03T06:35:43.039Z,7.70
2018-08-03T06:38:11.812Z,7.47
2018-08-03T06:40:40.455Z,6.90
2018-08-03T06:43:08.878Z,8.10
2018-08-03T06:45:38.486Z,7.23
2018-08-03T06:48:07.203Z,7.33
2018-08-03T06:50:36.216Z,7.10
2018-08-03T06:53:05.133Z,7.40
2018-08-03T06:55:33.508Z,6.53
2018-08-03T06:58:01.915Z,6.90
2018-08-03T07:00:30.313Z,7.23
2018-08-03T07:02:59.076Z,6.10
2018-08-03T07:05:27.298Z,6.83
2018-08-03T07:07:55.928Z,6.50
2018-08-03T07:10:24.311Z,7.13
2018-08-03T07:12:53.075Z,7.17
2018-08-03T07:15:21.447Z,6.40
2018-08-03T07:17:49.807Z,5.80
2018-08-03T07:20:18.868Z,6.93
2018-08-03T07:22:47.400Z,5.50
2018-08-03T07:25:15.847Z,6.43
2018-08-03T07:27:44.207Z,6.83
2018-08-03T07:30:12.660Z,6.07
2018-08-03T07:32:41.306Z,5.23
2018-08-03T07:35:09.982Z,5.27
2018-08-03T07:37:38.446Z,6.30
2018-08-03T07:40:07.525Z,5.13
2018-08-03T07:42:36.454Z,5.97
2018-08-03T07:45:05.765Z,5.80
2018-08-03T07:47:34.071Z,6.00
2018-08-03T07:50:02.457Z,5.80
2018-08-03T07:52:30.831Z,6.27
2018-08-03T07:54:59.315Z,5.80
2018-08-03T07:57:28.161Z,5.90
2018-08-03T07:59:56.500Z,5.50
2018-08-03T08:02:24.593Z,6.13
2018-08-03T08:04:53.659Z,5.90
2018-08-03T08:07:22.072Z,5.07
2018-08-03T08:09:50.659Z,6.37
2018-08-03T08:12:19.055Z,5.67
2018-08-03T08:14:47.700Z,5.47
2018-08-03T08:17:16.223Z,5.47
2018-08-03T08:19:44.619Z,5.93
2018-08-03T08:22:13.001Z,6.17
2018-08-03T08:24:42.471Z,6.70
2018-08-03T08:27:11.151Z,6.07
2018-08-03T08:29:39.495Z,5.47
2018-08-03T08:32:07.980Z,5.97
2018-08-03T08:34:36.347Z,5.90
2018-08-03T08:37:05.130Z,5.83
2018-08-03T08:39:34.270Z,6.47
2018-08-03T08:42:02.640Z,5.83
2018-08-03T08:44:31.019Z,5.47
2018-08-03T08:46:59.375Z,5.50
2018-08-03T08:49:27.758Z,5.30
2018-08-03T08:51:56.471Z,5.47
2018-08-03T08:54:25.163Z,6.90
2018-08-03T08:56:54.063Z,6.40
2018-08-03T08:59:22.499Z,5.60
2018-08-03T09:01:51.438Z,5.50
2018-08-03T09:04:20.131Z,6.00
2018-08-03T09:06:48.532Z,6.37
2018-08-03T09:09:16.902Z,6.30
2018-08-03T09:11:45.268Z,6.17
2018-08-03T09:14:13.638Z,5.47
2018-08-03T09:16:42.026Z,6.10
2018-08-03T09:19:10.394Z,5.33
2018-08-03T09:21:38.794Z,5.17
2018-08-03T09:24:07.436Z,4.80
2018-08-03T09:26:36.153Z,5.40
2018-08-03T09:29:04.803Z,6.47
2018-08-03T09:31:33.183Z,6.10
2018-08-03T09:34:02.074Z,5.17
2018-08-03T09:36:30.773Z,5.47
2018-08-03T09:38:59.435Z,5.60
2018-08-03T09:41:28.039Z,4.80
2018-08-03T09:43:56.454Z,4.93
2018-08-03T09:46:24.833Z,5.10
2018-08-03T09:48:54.347Z,5.67
2018-08-03T09:51:22.991Z,5.20
2018-08-03T09:53:51.467Z,5.20
2018-08-03T09:56:20.367Z,6.60
2018-08-03T09:58:48.718Z,5.17
2018-08-03T10:01:17.103Z,5.40
2018-08-03T10:03:45.462Z,5.80
2018-08-03T10:06:13.879Z,4.83
2018-08-03T10:08:42.252Z,5.33
2018-08-03T10:11:10.934Z,4.93
2018-08-03T10:13:39.449Z,5.37
2018-08-03T10:16:07.874Z,5.40
2018-08-03T10:18:36.260Z,6.90
2018-08-03T10:21:04.735Z,5.03
2018-08-03T10:23:33.426Z,5.50
2018-08-03T10:26:01.831Z,5.70
2018-08-03T10:28:30.243Z,5.27
2018-08-03T10:30:58.923Z,5.53
2018-08-03T10:33:28.071Z,4.33
2018-08-03T10:35:57.098Z,5.33
2018-08-03T10:38:25.497Z,4.83
2018-08-03T10:40:53.881Z,5.87
2018-08-03T10:43:22.298Z,5.40
2018-08-03T10:45:50.919Z,4.20
2018-08-03T10:48:20.573Z,6.00
2018-08-03T10:50:49.574Z,5.17
2018-08-03T10:53:18.267Z,5.53
2018-08-03T10:55:47.017Z,5.13
2018-08-03T10:58:15.410Z,5.40
2018-08-03T11:00:44.376Z,5.73
2018-08-03T11:03:12.743Z,5.80
2018-08-03T11:05:41.483Z,4.30
2018-08-03T11:08:10.167Z,5.60
2018-08-03T11:10:38.530Z,5.30
2018-08-03T11:13:07.334Z,4.93
2018-08-03T11:15:36.004Z,5.27
2018-08-03T11:18:04.699Z,4.50
2018-08-03T11:20:33.094Z,4.70
2018-08-03T11:23:01.731Z,5.23
2018-08-03T11:25:30.095Z,5.37
2018-08-03T11:27:58.499Z,4.90
2018-08-03T11:30:26.858Z,4.70
2018-08-03T11:32:55.548Z,5.60
2018-08-03T11:35:25.095Z,4.53
2018-08-03T11:37:53.683Z,5.40
2018-08-03T11:40:22.062Z,4.80
2018-08-03T11:42:50.463Z,5.20
2018-08-03T11:45:19.084Z,5.07
2018-08-03T11:47:47.462Z,5.10
2018-08-03T11:50:16.255Z,4.27
2018-08-03T11:52:44.643Z,4.80
2018-08-03T11:55:13.047Z,4.20
2018-08-03T11:57:41.395Z,5.77
2018-08-03T12:00:10.051Z,5.33
2018-08-03T12:02:38.810Z,3.90
2018-08-03T12:05:07.271Z,4.40
2018-08-03T12:07:35.982Z,4.23
2018-08-03T12:10:04.636Z,4.70
2018-08-03T12:12:33.030Z,4.77
2018-08-03T12:15:01.467Z,4.20
2018-08-03T12:17:29.814Z,3.73
2018-08-03T12:19:58.560Z,4.03
2018-08-03T12:22:27.199Z,3.93
2018-08-03T12:24:55.856Z,4.50
2018-08-03T12:27:24.558Z,4.77
2018-08-03T12:29:53.526Z,4.73
2018-08-03T12:32:22.191Z,4.60
2018-08-03T12:34:50.547Z,5.00
2018-08-03T12:37:19.155Z,4.17
2018-08-03T12:39:48.047Z,4.80
2018-08-03T12:42:16.444Z,4.97
2018-08-03T12:44:44.892Z,10.23
2018-08-03T12:47:13.274Z,5.27
2018-08-03T12:49:42.408Z,5.00
2018-08-03T12:52:11.287Z,4.60
2018-08-03T12:54:39.700Z,5.07
2018-08-03T12:57:08.387Z,4.53
2018-08-03T12:59:37.083Z,4.30
2018-08-03T13:02:05.467Z,4.00
2018-08-03T13:04:33.855Z,4.20
2018-08-03T13:07:02.499Z,4.17
2018-08-03T13:09:31.303Z,4.70
2018-08-03T13:11:59.704Z,4.97
2018-08-03T13:14:28.336Z,4.67
2018-08-03T13:16:56.801Z,4.40
2018-08-03T13:19:25.247Z,4.70
2018-08-03T13:21:53.646Z,4.70
2018-08-03T13:24:22.086Z,5.40
2018-08-03T13:26:50.468Z,4.87
2018-08-03T13:29:19.565Z,5.63
2018-08-03T13:31:47.903Z,5.00
2018-08-03T13:34:16.286Z,5.10
2018-08-03T13:36:44.690Z,5.10
2018-08-03T13:39:13.481Z,4.80
2018-08-03T13:41:42.618Z,4.17
2018-08-03T13:44:10.981Z,5.40
2018-08-03T13:46:39.830Z,5.17
2018-08-03T13:49:08.211Z,4.57
2018-08-03T13:51:36.746Z,4.40
2018-08-03T13:54:05.267Z,5.03
2018-08-03T13:56:34.556Z,4.70
2018-08-03T13:59:03.210Z,3.73
2018-08-03T14:01:43.003Z,4.53
2018-08-03T14:04:12.117Z,4.40
2018-08-03T14:06:40.478Z,4.20
2018-08-03T14:09:09.134Z,4.47
2018-08-03T14:11:37.534Z,5.10
2018-08-03T14:14:05.894Z,4.67
2018-08-03T14:16:34.883Z,5.43
2018-08-03T14:19:03.271Z,4.50
2018-08-03T14:21:32.179Z,4.77
2018-08-03T14:24:00.764Z,4.70
2018-08-03T14:26:31.668Z,4.90
2018-08-03T14:29:02.789Z,5.07
2018-08-03T14:31:33.098Z,5.20
2018-08-03T14:34:03.491Z,4.70
2018-08-03T14:36:32.207Z,5.10
2018-08-03T14:39:00.628Z,4.57
2018-08-03T14:41:29.226Z,4.57
2018-08-03T14:43:57.631Z,5.40
2018-08-03T14:46:26.006Z,4.83
2018-08-03T14:48:54.338Z,5.00
2018-08-03T14:51:22.983Z,5.40
2018-08-03T14:53:51.803Z,4.53
2018-08-03T14:56:20.486Z,6.13
2018-08-03T14:58:49.175Z,5.10
2018-08-03T15:01:17.891Z,4.90
2018-08-03T15:03:46.251Z,4.43
2018-08-03T15:06:14.611Z,4.90
2018-08-03T15:08:43.015Z,4.60
2018-08-03T15:11:11.687Z,4.90
2018-08-03T15:13:40.087Z,5.70
2018-08-03T15:16:08.474Z,4.70
2018-08-03T15:18:36.840Z,4.27
2018-08-03T15:21:06.839Z,4.50
2018-08-03T15:23:36.860Z,4.60
2018-08-03T15:26:05.495Z,5.20
2018-08-03T15:28:34.375Z,5.53
2018-08-03T15:31:02.750Z,3.53
2018-08-03T15:33:30.858Z,4.70
2018-08-03T15:35:59.483Z,3.93
2018-08-03T15:38:28.143Z,4.07
2018-08-03T15:40:56.662Z,4.30
2018-08-03T15:43:25.015Z,4.23
2018-08-03T15:45:53.403Z,4.40
2018-08-03T15:48:22.118Z,4.03
2018-08-03T15:50:50.979Z,4.07
2018-08-03T15:53:19.338Z,3.60
2018-08-03T15:55:47.919Z,3.77
2018-08-03T15:58:16.611Z,4.70
2018-08-03T16:00:45.026Z,4.30
2018-08-03T16:03:13.407Z,4.67
2018-08-03T16:05:42.059Z,4.90
2018-08-03T16:08:10.458Z,3.97
2018-08-03T16:10:38.827Z,4.53
2018-08-03T16:13:07.215Z,4.40
2018-08-03T16:15:35.890Z,4.80
2018-08-03T16:18:04.267Z,3.93
2018-08-03T16:20:32.716Z,4.17
2018-08-03T16:23:01.524Z,4.47
2018-08-03T16:25:31.207Z,3.80
2018-08-03T16:28:00.251Z,3.50
2018-08-03T16:30:28.661Z,4.00
2018-08-03T16:32:57.070Z,3.90
2018-08-03T16:35:25.738Z,4.37
2018-08-03T16:37:54.855Z,4.30
2018-08-03T16:40:23.313Z,4.80
2018-08-03T16:42:52.344Z,4.40
2018-08-03T16:45:20.786Z,4.33
2018-08-03T16:47:49.232Z,4.30
2018-08-03T16:50:17.635Z,3.93
2018-08-03T16:52:45.718Z,4.33
2018-08-03T16:55:14.083Z,4.30
2018-08-03T16:57:42.890Z,4.03
2018-08-03T17:00:11.276Z,4.90
2018-08-03T17:02:40.101Z,4.60
2018-08-03T17:05:08.501Z,3.90
2018-08-03T17:07:36.862Z,4.43
2018-08-03T17:10:05.827Z,4.80
2018-08-03T17:12:34.200Z,4.37
2018-08-03T17:15:02.919Z,4.20
2018-08-03T17:17:31.635Z,3.83
2018-08-03T17:20:00.359Z,4.63
2018-08-03T17:22:28.731Z,4.80
2018-08-03T17:24:57.520Z,4.63
2018-08-03T17:27:26.214Z,4.97
2018-08-03T17:29:54.839Z,4.47
2018-08-03T17:32:23.435Z,4.43
2018-08-03T17:34:51.810Z,3.60
2018-08-03T17:37:20.182Z,4.00
2018-08-03T17:39:49.046Z,4.10
2018-08-03T17:42:17.412Z,4.10
2018-08-03T17:44:45.789Z,4.60
2018-08-03T17:47:14.631Z,4.13
2018-08-03T17:49:43.291Z,3.53
2018-08-03T17:52:11.649Z,4.07
2018-08-03T17:54:40.040Z,3.57
2018-08-03T17:57:08.699Z,4.77
2018-08-03T17:59:37.059Z,4.50
2018-08-03T18:02:05.487Z,3.27
2018-08-03T18:04:34.236Z,4.17
2018-08-03T18:07:02.926Z,4.63
2018-08-03T18:09:31.603Z,3.97
2018-08-03T18:12:00.263Z,4.10
2018-08-03T18:14:28.643Z,4.43
2018-08-03T18:16:57.023Z,4.97
2018-08-03T18:19:25.421Z,4.03
2018-08-03T18:21:53.916Z,3.83
2018-08-03T18:24:22.250Z,4.30
2018-08-03T18:26:51.335Z,3.83
2018-08-03T18:29:19.717Z,4.40
2018-08-03T18:31:48.094Z,3.57
2018-08-03T18:34:16.455Z,5.27
2018-08-03T18:36:44.867Z,3.83
2018-08-03T18:39:13.538Z,3.90
2018-08-03T18:41:42.898Z,4.43
2018-08-03T18:44:11.721Z,3.73
2018-08-03T18:46:40.285Z,4.47
2018-08-03T18:49:08.871Z,3.43
2018-08-03T18:51:37.755Z,4.30
2018-08-03T18:54:06.359Z,4.30
2018-08-03T18:56:35.752Z,4.93
2018-08-03T18:59:04.131Z,4.40
2018-08-03T19:01:33.351Z,5.10
2018-08-03T19:04:01.715Z,4.30
2018-08-03T19:06:30.410Z,4.20
2018-08-03T19:08:59.574Z,5.13
2018-08-03T19:11:27.970Z,4.50
2018-08-03T19:13:57.451Z,4.23
2018-08-03T19:16:26.151Z,5.10
2018-08-03T19:18:54.554Z,4.13
2018-08-03T19:21:22.918Z,5.17
2018-08-03T19:23:51.566Z,4.90
2018-08-03T19:26:19.975Z,5.00
2018-08-03T19:28:48.675Z,4.33
2018-08-03T19:31:17.118Z,4.60
2018-08-03T19:33:45.503Z,4.50
2018-08-03T19:36:14.198Z,4.70
2018-08-03T19:38:42.942Z,5.20
2018-08-03T19:41:11.427Z,5.00
2018-08-03T19:43:40.335Z,5.33
2018-08-03T19:46:08.714Z,5.50
2018-08-03T19:48:37.087Z,5.43
2018-08-03T19:51:06.302Z,4.57
2018-08-03T19:53:34.979Z,5.93
2018-08-03T19:56:04.213Z,5.20
2018-08-03T19:58:32.689Z,5.53
2018-08-03T20:01:01.648Z,5.13
2018-08-03T20:03:30.043Z,6.10
2018-08-03T20:05:58.459Z,4.93
2018-08-03T20:08:26.509Z,5.57
2018-08-03T20:10:56.251Z,4.77
2018-08-03T20:13:24.763Z,5.83
2018-08-03T20:15:53.599Z,4.73
2018-08-03T20:18:22.424Z,6.40
2018-08-03T20:20:50.978Z,5.77
2018-08-03T20:23:19.670Z,6.37
2018-08-03T20:25:48.919Z,6.40
2018-08-03T20:28:17.495Z,5.10
2018-08-03T20:30:45.884Z,4.40
2018-08-03T20:33:14.255Z,5.77
2018-08-03T20:35:42.615Z,5.80
2018-08-03T20:38:11.315Z,4.83
2018-08-03T20:40:40.331Z,4.23
2018-08-03T20:43:08.747Z,4.77
2018-08-03T20:45:37.783Z,5.43
2018-08-03T20:48:06.167Z,5.47
2018-08-03T20:50:34.523Z,5.57
2018-08-03T20:53:02.954Z,5.50
2018-08-03T20:55:31.590Z,5.90
2018-08-03T20:58:00.184Z,5.20
2018-08-03T21:00:29.279Z,5.50
2018-08-03T21:02:57.966Z,6.13
2018-08-03T21:05:26.326Z,5.70
2018-08-03T21:07:54.713Z,6.37
2018-08-03T21:10:23.411Z,5.33
2018-08-03T21:12:51.783Z,5.63
2018-08-03T21:15:20.386Z,5.13
2018-08-03T21:17:48.796Z,4.60
2018-08-03T21:20:17.223Z,5.13
2018-08-03T21:22:46.273Z,5.83
2018-08-03T21:25:15.247Z,5.33
2018-08-03T21:27:43.955Z,6.07
2018-08-03T21:30:12.414Z,6.20
2018-08-03T21:32:41.018Z,5.43
2018-08-03T21:35:09.390Z,5.80
2018-08-03T21:37:37.762Z,6.77
2018-08-03T21:40:06.231Z,5.00
2018-08-03T21:42:35.442Z,5.07
2018-08-03T21:45:04.346Z,4.97
2018-08-03T21:47:32.998Z,6.00
2018-08-03T21:50:01.721Z,5.00
2018-08-03T21:52:30.954Z,5.40
2018-08-03T21:54:59.741Z,6.47
2018-08-03T21:57:28.738Z,5.60
2018-08-03T21:59:57.333Z,6.20
2018-08-03T22:02:26.025Z,5.63
2018-08-03T22:04:54.427Z,5.70
2018-08-03T22:07:22.867Z,5.10
2018-08-03T22:09:51.459Z,5.00
2018-08-03T22:12:20.219Z,5.70
2018-08-03T22:14:49.226Z,4.93
2018-08-03T22:17:17.982Z,5.70
2018-08-03T22:19:47.131Z,6.60
2018-08-03T22:22:15.789Z,5.20
2018-08-03T22:24:44.285Z,5.83
2018-08-03T22:27:12.973Z,5.57
2018-08-03T22:29:41.647Z,5.13
2018-08-03T22:32:10.059Z,5.70
2018-08-03T22:34:38.710Z,6.60
2018-08-03T22:37:07.599Z,5.80
2018-08-03T22:39:36.318Z,5.13
2018-08-03T22:42:04.966Z,5.77
2018-08-03T22:44:33.859Z,5.70
2018-08-03T22:47:02.311Z,5.50
2018-08-03T22:49:31.143Z,6.90
2018-08-03T22:51:59.529Z,4.77
2018-08-03T22:54:27.898Z,6.93
2018-08-03T22:56:59.196Z,5.30
2018-08-03T22:59:30.015Z,5.60
2018-08-03T23:02:00.141Z,5.63
2018-08-03T23:04:28.886Z,7.70
2018-08-03T23:06:57.237Z,5.53
2018-08-03T23:09:25.966Z,6.13
2018-08-03T23:11:54.786Z,7.10
2018-08-03T23:14:23.477Z,6.20
2018-08-03T23:16:51.814Z,5.70
2018-08-03T23:19:20.211Z,6.20
2018-08-03T23:21:48.880Z,6.80
2018-08-03T23:24:17.559Z,6.33
2018-08-03T23:26:45.943Z,6.07
2018-08-03T23:29:14.320Z,6.67
2018-08-03T23:31:42.807Z,5.93
2018-08-03T23:34:11.179Z,7.00
2018-08-03T23:36:39.535Z,5.30
2018-08-03T23:39:08.962Z,5.60
2018-08-03T23:41:37.366Z,6.13
2018-08-03T23:44:05.755Z,5.57
2018-08-03T23:46:34.077Z,4.93
2018-08-03T23:49:02.796Z,5.90
2018-08-03T23:51:31.179Z,6.70
2018-08-03T23:53:59.618Z,7.07
2018-08-03T23:56:28.290Z,5.97
2018-08-03T23:58:56.689Z,6.37
